sensor_id;sensor_type;location;lat;lon;timestamp;P1;durP1;ratioP1;P2;durP2;ratioP2
69434;SDS011;56625;54.322;18.582;2022-09-20T00:01:34;4.10;;;0.80;;
69434;SDS011;56625;54.322;18.582;2022-09-20T00:04:03;2.60;;;0.40;;
69434;SDS011;56625;54.322;18.582;2022-09-20T00:06:34;3.00;;;0.70;;
69434;SDS011;56625;54.322;18.582;2022-09-20T00:09:03;2.50;;;0.50;;
69434;SDS011;56625;54.322;18.582;2022-09-20T00:11:33;3.60;;;0.70;;
69434;SDS011;56625;54.322;18.582;2022-09-20T00:14:04;4.50;;;0.80;;
69434;SDS011;56625;54.322;18.582;2022-09-20T00:16:38;3.60;;;0.80;;
69434;SDS011;56625;54.322;18.582;2022-09-20T00:19:11;4.00;;;0.80;;
69434;SDS011;56625;54.322;18.582;2022-09-20T00:21:44;3.10;;;0.50;;
69434;SDS011;56625;54.322;18.582;2022-09-20T00:24:12;4.10;;;0.70;;
69434;SDS011;56625;54.322;18.582;2022-09-20T00:26:40;3.30;;;0.80;;
69434;SDS011;56625;54.322;18.582;2022-09-20T00:29:08;3.30;;;0.60;;
69434;SDS011;56625;54.322;18.582;2022-09-20T00:31:36;3.50;;;0.50;;
69434;SDS011;56625;54.322;18.582;2022-09-20T00:34:08;3.70;;;0.80;;
69434;SDS011;56625;54.322;18.582;2022-09-20T00:36:56;3.70;;;0.70;;
69434;SDS011;56625;54.322;18.582;2022-09-20T00:39:24;4.10;;;0.80;;
69434;SDS011;56625;54.322;18.582;2022-09-20T00:41:51;4.80;;;0.90;;
69434;SDS011;56625;54.322;18.582;2022-09-20T00:47:25;3.40;;;0.70;;
69434;SDS011;56625;54.322;18.582;2022-09-20T00:50:33;3.00;;;0.60;;
69434;SDS011;56625;54.322;18.582;2022-09-20T00:53:08;3.10;;;0.60;;
69434;SDS011;56625;54.322;18.582;2022-09-20T00:55:48;4.30;;;0.60;;
69434;SDS011;56625;54.322;18.582;2022-09-20T00:58:20;3.50;;;0.60;;
69434;SDS011;56625;54.322;18.582;2022-09-20T01:00:52;4.10;;;0.80;;
69434;SDS011;56625;54.322;18.582;2022-09-20T01:03:24;5.20;;;1.20;;
69434;SDS011;56625;54.322;18.582;2022-09-20T01:06:01;4.30;;;0.70;;
69434;SDS011;56625;54.322;18.582;2022-09-20T01:08:34;4.40;;;1.00;;
69434;SDS011;56625;54.322;18.582;2022-09-20T01:11:03;4.30;;;0.90;;
69434;SDS011;56625;54.322;18.582;2022-09-20T01:13:31;4.30;;;0.80;;
69434;SDS011;56625;54.322;18.582;2022-09-20T01:15:59;4.00;;;0.80;;
69434;SDS011;56625;54.322;18.582;2022-09-20T01:18:31;3.60;;;0.80;;
69434;SDS011;56625;54.322;18.582;2022-09-20T01:21:02;4.10;;;1.00;;
69434;SDS011;56625;54.322;18.582;2022-09-20T01:23:50;6.10;;;1.20;;
69434;SDS011;56625;54.322;18.582;2022-09-20T01:27:21;4.40;;;0.70;;
69434;SDS011;56625;54.322;18.582;2022-09-20T01:30:17;4.80;;;0.60;;
69434;SDS011;56625;54.322;18.582;2022-09-20T01:33:01;3.80;;;0.80;;
69434;SDS011;56625;54.322;18.582;2022-09-20T01:35:38;4.00;;;0.80;;
69434;SDS011;56625;54.322;18.582;2022-09-20T01:38:23;4.00;;;0.60;;
69434;SDS011;56625;54.322;18.582;2022-09-20T01:41:27;4.00;;;1.00;;
69434;SDS011;56625;54.322;18.582;2022-09-20T01:44:19;3.40;;;0.50;;
69434;SDS011;56625;54.322;18.582;2022-09-20T01:47:02;3.20;;;0.70;;
69434;SDS011;56625;54.322;18.582;2022-09-20T01:49:56;3.60;;;0.70;;
69434;SDS011;56625;54.322;18.582;2022-09-20T01:52:48;2.80;;;0.40;;
69434;SDS011;56625;54.322;18.582;2022-09-20T01:55:41;5.20;;;0.70;;
69434;SDS011;56625;54.322;18.582;2022-09-20T01:58:43;2.40;;;0.40;;
69434;SDS011;56625;54.322;18.582;2022-09-20T02:02:29;3.90;;;0.80;;
69434;SDS011;56625;54.322;18.582;2022-09-20T02:08:58;4.50;;;0.80;;
69434;SDS011;56625;54.322;18.582;2022-09-20T02:18:42;3.80;;;0.60;;
69434;SDS011;56625;54.322;18.582;2022-09-20T02:21:38;3.90;;;0.60;;
69434;SDS011;56625;54.322;18.582;2022-09-20T02:24:38;3.90;;;0.60;;
69434;SDS011;56625;54.322;18.582;2022-09-20T02:27:30;2.60;;;0.50;;
69434;SDS011;56625;54.322;18.582;2022-09-20T02:30:46;3.80;;;0.50;;
69434;SDS011;56625;54.322;18.582;2022-09-20T02:43:50;3.20;;;0.50;;
69434;SDS011;56625;54.322;18.582;2022-09-20T02:56:25;3.40;;;0.50;;
69434;SDS011;56625;54.322;18.582;2022-09-20T03:02:13;3.10;;;0.60;;
69434;SDS011;56625;54.322;18.582;2022-09-20T03:05:18;2.90;;;0.50;;
69434;SDS011;56625;54.322;18.582;2022-09-20T03:08:00;2.20;;;0.30;;
69434;SDS011;56625;54.322;18.582;2022-09-20T03:11:18;2.90;;;0.40;;
69434;SDS011;56625;54.322;18.582;2022-09-20T03:14:10;3.20;;;0.50;;
69434;SDS011;56625;54.322;18.582;2022-09-20T03:20:07;2.10;;;0.40;;
69434;SDS011;56625;54.322;18.582;2022-09-20T03:23:22;2.50;;;0.40;;
69434;SDS011;56625;54.322;18.582;2022-09-20T03:33:09;2.70;;;0.40;;
69434;SDS011;56625;54.322;18.582;2022-09-20T03:36:11;2.60;;;0.40;;
69434;SDS011;56625;54.322;18.582;2022-09-20T03:41:36;2.50;;;0.50;;
69434;SDS011;56625;54.322;18.582;2022-09-20T03:47:47;3.70;;;0.40;;
69434;SDS011;56625;54.322;18.582;2022-09-20T03:50:46;4.50;;;0.60;;
69434;SDS011;56625;54.322;18.582;2022-09-20T03:57:09;3.70;;;0.50;;
69434;SDS011;56625;54.322;18.582;2022-09-20T04:14:46;4.30;;;0.50;;
69434;SDS011;56625;54.322;18.582;2022-09-20T04:17:32;4.40;;;0.60;;
69434;SDS011;56625;54.322;18.582;2022-09-20T04:20:20;4.10;;;0.80;;
69434;SDS011;56625;54.322;18.582;2022-09-20T04:22:53;4.50;;;1.10;;
69434;SDS011;56625;54.322;18.582;2022-09-20T04:25:34;3.90;;;0.60;;
69434;SDS011;56625;54.322;18.582;2022-09-20T04:28:16;4.20;;;0.80;;
69434;SDS011;56625;54.322;18.582;2022-09-20T04:31:24;3.20;;;0.60;;
69434;SDS011;56625;54.322;18.582;2022-09-20T04:34:11;2.30;;;0.30;;
69434;SDS011;56625;54.322;18.582;2022-09-20T04:36:56;3.70;;;0.70;;
69434;SDS011;56625;54.322;18.582;2022-09-20T04:39:45;3.40;;;0.60;;
69434;SDS011;56625;54.322;18.582;2022-09-20T04:58:33;3.30;;;0.60;;
69434;SDS011;56625;54.322;18.582;2022-09-20T05:16:21;3.30;;;0.60;;
69434;SDS011;56625;54.322;18.582;2022-09-20T05:19:14;3.80;;;0.80;;
69434;SDS011;56625;54.322;18.582;2022-09-20T05:25:46;4.70;;;0.60;;
69434;SDS011;56625;54.322;18.582;2022-09-20T05:28:33;13.40;;;1.50;;
69434;SDS011;56625;54.322;18.582;2022-09-20T05:31:29;6.20;;;1.10;;
69434;SDS011;56625;54.322;18.582;2022-09-20T05:34:32;4.20;;;0.60;;
69434;SDS011;56625;54.322;18.582;2022-09-20T05:40:21;5.60;;;1.00;;
69434;SDS011;56625;54.322;18.582;2022-09-20T05:43:12;3.90;;;0.80;;
69434;SDS011;56625;54.322;18.582;2022-09-20T05:46:13;3.40;;;0.60;;
69434;SDS011;56625;54.322;18.582;2022-09-20T05:48:51;4.10;;;0.60;;
69434;SDS011;56625;54.322;18.582;2022-09-20T05:51:57;3.30;;;0.60;;
69434;SDS011;56625;54.322;18.582;2022-09-20T05:58:15;5.30;;;0.90;;
69434;SDS011;56625;54.322;18.582;2022-09-20T06:01:03;4.80;;;0.90;;
69434;SDS011;56625;54.322;18.582;2022-09-20T06:03:53;4.90;;;1.30;;
69434;SDS011;56625;54.322;18.582;2022-09-20T06:12:21;4.10;;;0.60;;
69434;SDS011;56625;54.322;18.582;2022-09-20T06:15:01;5.30;;;0.60;;
69434;SDS011;56625;54.322;18.582;2022-09-20T06:17:55;3.40;;;0.40;;
69434;SDS011;56625;54.322;18.582;2022-09-20T06:20:45;2.30;;;0.40;;
69434;SDS011;56625;54.322;18.582;2022-09-20T06:23:22;5.20;;;0.60;;
69434;SDS011;56625;54.322;18.582;2022-09-20T06:26:01;5.00;;;0.60;;
69434;SDS011;56625;54.322;18.582;2022-09-20T06:28:39;4.30;;;0.40;;
69434;SDS011;56625;54.322;18.582;2022-09-20T06:31:09;3.40;;;0.40;;
69434;SDS011;56625;54.322;18.582;2022-09-20T06:33:42;3.20;;;0.30;;
69434;SDS011;56625;54.322;18.582;2022-09-20T06:36:29;2.00;;;0.30;;
69434;SDS011;56625;54.322;18.582;2022-09-20T06:39:26;3.10;;;0.70;;
69434;SDS011;56625;54.322;18.582;2022-09-20T06:42:32;5.10;;;0.60;;
69434;SDS011;56625;54.322;18.582;2022-09-20T06:45:00;3.90;;;0.80;;
69434;SDS011;56625;54.322;18.582;2022-09-20T06:47:28;3.80;;;0.60;;
69434;SDS011;56625;54.322;18.582;2022-09-20T06:49:56;5.50;;;0.90;;
69434;SDS011;56625;54.322;18.582;2022-09-20T06:52:25;4.20;;;0.70;;
69434;SDS011;56625;54.322;18.582;2022-09-20T06:54:54;5.40;;;0.70;;
69434;SDS011;56625;54.322;18.582;2022-09-20T06:57:31;6.10;;;1.00;;
69434;SDS011;56625;54.322;18.582;2022-09-20T07:00:04;5.00;;;0.80;;
69434;SDS011;56625;54.322;18.582;2022-09-20T07:02:38;5.70;;;0.80;;
69434;SDS011;56625;54.322;18.582;2022-09-20T07:05:08;3.70;;;0.60;;
69434;SDS011;56625;54.322;18.582;2022-09-20T07:07:42;3.40;;;0.60;;
69434;SDS011;56625;54.322;18.582;2022-09-20T07:10:10;5.60;;;0.80;;
69434;SDS011;56625;54.322;18.582;2022-09-20T07:12:38;4.10;;;0.80;;
69434;SDS011;56625;54.322;18.582;2022-09-20T07:15:07;5.10;;;0.80;;
69434;SDS011;56625;54.322;18.582;2022-09-20T07:17:35;7.70;;;0.80;;
69434;SDS011;56625;54.322;18.582;2022-09-20T07:20:05;5.60;;;0.90;;
69434;SDS011;56625;54.322;18.582;2022-09-20T07:22:33;5.70;;;0.50;;
69434;SDS011;56625;54.322;18.582;2022-09-20T07:25:01;4.50;;;0.80;;
69434;SDS011;56625;54.322;18.582;2022-09-20T07:27:29;4.20;;;0.70;;
69434;SDS011;56625;54.322;18.582;2022-09-20T07:29:57;5.20;;;0.70;;
69434;SDS011;56625;54.322;18.582;2022-09-20T07:32:25;2.90;;;0.30;;
69434;SDS011;56625;54.322;18.582;2022-09-20T07:34:53;2.40;;;0.40;;
69434;SDS011;56625;54.322;18.582;2022-09-20T07:37:21;2.50;;;0.60;;
69434;SDS011;56625;54.322;18.582;2022-09-20T07:39:49;3.90;;;0.40;;
69434;SDS011;56625;54.322;18.582;2022-09-20T07:42:17;2.80;;;0.40;;
69434;SDS011;56625;54.322;18.582;2022-09-20T07:44:45;2.90;;;0.40;;
69434;SDS011;56625;54.322;18.582;2022-09-20T07:47:14;3.40;;;0.60;;
69434;SDS011;56625;54.322;18.582;2022-09-20T07:49:42;4.00;;;0.30;;
69434;SDS011;56625;54.322;18.582;2022-09-20T07:52:09;1.70;;;0.20;;
69434;SDS011;56625;54.322;18.582;2022-09-20T07:54:39;3.20;;;0.30;;
69434;SDS011;56625;54.322;18.582;2022-09-20T07:57:08;3.10;;;0.30;;
69434;SDS011;56625;54.322;18.582;2022-09-20T07:59:35;3.60;;;0.40;;
69434;SDS011;56625;54.322;18.582;2022-09-20T08:02:04;3.10;;;0.40;;
69434;SDS011;56625;54.322;18.582;2022-09-20T08:04:32;1.70;;;0.30;;
69434;SDS011;56625;54.322;18.582;2022-09-20T08:07:06;2.80;;;0.20;;
69434;SDS011;56625;54.322;18.582;2022-09-20T08:09:34;2.30;;;0.30;;
69434;SDS011;56625;54.322;18.582;2022-09-20T08:12:02;2.80;;;0.30;;
69434;SDS011;56625;54.322;18.582;2022-09-20T08:14:51;4.50;;;0.50;;
69434;SDS011;56625;54.322;18.582;2022-09-20T08:17:20;2.60;;;0.30;;
69434;SDS011;56625;54.322;18.582;2022-09-20T08:19:47;3.10;;;0.40;;
69434;SDS011;56625;54.322;18.582;2022-09-20T08:22:16;2.40;;;0.40;;
69434;SDS011;56625;54.322;18.582;2022-09-20T08:24:44;2.50;;;0.30;;
69434;SDS011;56625;54.322;18.582;2022-09-20T08:27:13;1.80;;;0.20;;
69434;SDS011;56625;54.322;18.582;2022-09-20T08:29:41;1.50;;;0.30;;
69434;SDS011;56625;54.322;18.582;2022-09-20T08:32:08;1.60;;;0.20;;
69434;SDS011;56625;54.322;18.582;2022-09-20T08:34:36;1.60;;;0.30;;
69434;SDS011;56625;54.322;18.582;2022-09-20T08:37:06;2.20;;;0.30;;
69434;SDS011;56625;54.322;18.582;2022-09-20T08:39:33;2.30;;;0.30;;
69434;SDS011;56625;54.322;18.582;2022-09-20T08:42:29;2.10;;;0.30;;
69434;SDS011;56625;54.322;18.582;2022-09-20T08:45:13;2.00;;;0.30;;
69434;SDS011;56625;54.322;18.582;2022-09-20T08:48:06;2.70;;;0.30;;
69434;SDS011;56625;54.322;18.582;2022-09-20T08:50:41;2.90;;;0.20;;
69434;SDS011;56625;54.322;18.582;2022-09-20T08:53:11;1.90;;;0.30;;
69434;SDS011;56625;54.322;18.582;2022-09-20T08:55:48;2.50;;;0.20;;
69434;SDS011;56625;54.322;18.582;2022-09-20T08:58:16;2.50;;;0.20;;
69434;SDS011;56625;54.322;18.582;2022-09-20T09:00:45;1.60;;;0.20;;
69434;SDS011;56625;54.322;18.582;2022-09-20T09:03:15;1.80;;;0.10;;
69434;SDS011;56625;54.322;18.582;2022-09-20T09:05:55;1.70;;;0.20;;
69434;SDS011;56625;54.322;18.582;2022-09-20T09:08:27;2.20;;;0.20;;
69434;SDS011;56625;54.322;18.582;2022-09-20T09:11:11;2.50;;;0.20;;
69434;SDS011;56625;54.322;18.582;2022-09-20T09:16:33;1.20;;;0.10;;
69434;SDS011;56625;54.322;18.582;2022-09-20T09:19:32;2.10;;;0.10;;
69434;SDS011;56625;54.322;18.582;2022-09-20T09:22:39;2.10;;;0.20;;
69434;SDS011;56625;54.322;18.582;2022-09-20T09:25:23;3.20;;;0.20;;
69434;SDS011;56625;54.322;18.582;2022-09-20T09:28:21;2.00;;;0.30;;
69434;SDS011;56625;54.322;18.582;2022-09-20T09:30:51;1.90;;;0.20;;
69434;SDS011;56625;54.322;18.582;2022-09-20T09:33:25;2.30;;;0.30;;
69434;SDS011;56625;54.322;18.582;2022-09-20T09:35:58;1.50;;;0.10;;
69434;SDS011;56625;54.322;18.582;2022-09-20T09:38:36;1.40;;;0.20;;
69434;SDS011;56625;54.322;18.582;2022-09-20T09:44:39;2.00;;;0.20;;
69434;SDS011;56625;54.322;18.582;2022-09-20T09:46:56;0.90;;;0.20;;
69434;SDS011;56625;54.322;18.582;2022-09-20T09:49:26;1.90;;;0.30;;
69434;SDS011;56625;54.322;18.582;2022-09-20T09:52:14;1.40;;;0.30;;
69434;SDS011;56625;54.322;18.582;2022-09-20T09:54:53;1.30;;;0.20;;
69434;SDS011;56625;54.322;18.582;2022-09-20T10:00:23;2.90;;;0.50;;
69434;SDS011;56625;54.322;18.582;2022-09-20T10:03:28;2.00;;;0.40;;
69434;SDS011;56625;54.322;18.582;2022-09-20T10:09:07;2.50;;;0.30;;
69434;SDS011;56625;54.322;18.582;2022-09-20T10:11:55;4.10;;;0.50;;
69434;SDS011;56625;54.322;18.582;2022-09-20T10:14:47;2.70;;;0.30;;
69434;SDS011;56625;54.322;18.582;2022-09-20T10:26:45;2.00;;;0.40;;
69434;SDS011;56625;54.322;18.582;2022-09-20T10:32:11;2.90;;;0.70;;
69434;SDS011;56625;54.322;18.582;2022-09-20T10:34:54;4.40;;;0.40;;
69434;SDS011;56625;54.322;18.582;2022-09-20T10:37:50;2.20;;;0.20;;
69434;SDS011;56625;54.322;18.582;2022-09-20T10:40:27;0.80;;;0.20;;
69434;SDS011;56625;54.322;18.582;2022-09-20T10:44:09;3.00;;;0.30;;
69434;SDS011;56625;54.322;18.582;2022-09-20T10:47:14;1.50;;;0.30;;
69434;SDS011;56625;54.322;18.582;2022-09-20T10:50:23;1.40;;;0.20;;
69434;SDS011;56625;54.322;18.582;2022-09-20T10:56:30;1.90;;;0.20;;
69434;SDS011;56625;54.322;18.582;2022-09-20T11:05:00;1.30;;;0.20;;
69434;SDS011;56625;54.322;18.582;2022-09-20T11:08:12;1.00;;;0.10;;
69434;SDS011;56625;54.322;18.582;2022-09-20T11:10:51;1.40;;;0.30;;
69434;SDS011;56625;54.322;18.582;2022-09-20T11:13:39;1.80;;;0.20;;
69434;SDS011;56625;54.322;18.582;2022-09-20T11:19:04;1.50;;;0.20;;
69434;SDS011;56625;54.322;18.582;2022-09-20T11:21:53;2.00;;;0.20;;
69434;SDS011;56625;54.322;18.582;2022-09-20T11:24:32;1.80;;;0.40;;
69434;SDS011;56625;54.322;18.582;2022-09-20T11:27:11;1.90;;;0.20;;
69434;SDS011;56625;54.322;18.582;2022-09-20T11:30:06;1.60;;;0.30;;
69434;SDS011;56625;54.322;18.582;2022-09-20T11:32:52;2.70;;;0.30;;
69434;SDS011;56625;54.322;18.582;2022-09-20T11:35:42;4.00;;;0.50;;
69434;SDS011;56625;54.322;18.582;2022-09-20T11:41:13;3.20;;;0.20;;
69434;SDS011;56625;54.322;18.582;2022-09-20T11:43:42;4.20;;;0.40;;
69434;SDS011;56625;54.322;18.582;2022-09-20T11:46:21;5.50;;;0.60;;
69434;SDS011;56625;54.322;18.582;2022-09-20T11:49:00;3.90;;;0.40;;
69434;SDS011;56625;54.322;18.582;2022-09-20T11:51:49;3.60;;;0.50;;
69434;SDS011;56625;54.322;18.582;2022-09-20T11:55:09;2.90;;;0.50;;
69434;SDS011;56625;54.322;18.582;2022-09-20T11:58:02;2.30;;;0.40;;
69434;SDS011;56625;54.322;18.582;2022-09-20T12:00:39;2.50;;;0.40;;
69434;SDS011;56625;54.322;18.582;2022-09-20T12:06:26;4.60;;;0.70;;
69434;SDS011;56625;54.322;18.582;2022-09-20T12:09:05;2.90;;;0.40;;
69434;SDS011;56625;54.322;18.582;2022-09-20T12:11:49;5.30;;;1.00;;
69434;SDS011;56625;54.322;18.582;2022-09-20T12:14:23;2.10;;;0.40;;
69434;SDS011;56625;54.322;18.582;2022-09-20T12:16:54;3.50;;;0.60;;
69434;SDS011;56625;54.322;18.582;2022-09-20T12:24:31;2.50;;;0.50;;
69434;SDS011;56625;54.322;18.582;2022-09-20T12:27:19;3.70;;;0.50;;
69434;SDS011;56625;54.322;18.582;2022-09-20T12:30:17;2.20;;;0.50;;
69434;SDS011;56625;54.322;18.582;2022-09-20T12:32:52;2.60;;;0.70;;
69434;SDS011;56625;54.322;18.582;2022-09-20T12:38:24;3.20;;;0.50;;
69434;SDS011;56625;54.322;18.582;2022-09-20T12:41:10;3.00;;;0.60;;
69434;SDS011;56625;54.322;18.582;2022-09-20T12:44:04;3.10;;;0.50;;
69434;SDS011;56625;54.322;18.582;2022-09-20T12:46:53;3.20;;;0.90;;
69434;SDS011;56625;54.322;18.582;2022-09-20T13:00:47;4.60;;;0.90;;
69434;SDS011;56625;54.322;18.582;2022-09-20T13:08:42;4.50;;;0.80;;
69434;SDS011;56625;54.322;18.582;2022-09-20T13:11:17;4.50;;;0.70;;
69434;SDS011;56625;54.322;18.582;2022-09-20T13:13:55;3.20;;;0.80;;
69434;SDS011;56625;54.322;18.582;2022-09-20T13:19:16;6.30;;;1.20;;
69434;SDS011;56625;54.322;18.582;2022-09-20T13:22:04;4.20;;;0.80;;
69434;SDS011;56625;54.322;18.582;2022-09-20T13:24:41;4.90;;;0.90;;
69434;SDS011;56625;54.322;18.582;2022-09-20T13:27:15;5.00;;;1.10;;
69434;SDS011;56625;54.322;18.582;2022-09-20T13:29:47;4.30;;;0.90;;
69434;SDS011;56625;54.322;18.582;2022-09-20T13:32:30;3.20;;;0.70;;
69434;SDS011;56625;54.322;18.582;2022-09-20T13:37:37;5.10;;;1.10;;
69434;SDS011;56625;54.322;18.582;2022-09-20T13:40:33;2.80;;;0.50;;
69434;SDS011;56625;54.322;18.582;2022-09-20T13:43:04;4.30;;;0.70;;
69434;SDS011;56625;54.322;18.582;2022-09-20T13:45:54;3.30;;;0.70;;
69434;SDS011;56625;54.322;18.582;2022-09-20T13:48:26;2.70;;;0.40;;
69434;SDS011;56625;54.322;18.582;2022-09-20T13:50:58;6.80;;;0.60;;
69434;SDS011;56625;54.322;18.582;2022-09-20T13:53:29;2.20;;;0.50;;
69434;SDS011;56625;54.322;18.582;2022-09-20T13:56:20;2.70;;;0.40;;
69434;SDS011;56625;54.322;18.582;2022-09-20T13:58:52;2.20;;;0.50;;
69434;SDS011;56625;54.322;18.582;2022-09-20T14:04:12;3.30;;;0.50;;
69434;SDS011;56625;54.322;18.582;2022-09-20T14:06:44;2.40;;;0.40;;
69434;SDS011;56625;54.322;18.582;2022-09-20T14:09:39;3.10;;;0.40;;
69434;SDS011;56625;54.322;18.582;2022-09-20T14:12:12;3.10;;;0.50;;
69434;SDS011;56625;54.322;18.582;2022-09-20T14:14:42;2.50;;;0.40;;
69434;SDS011;56625;54.322;18.582;2022-09-20T14:17:15;3.40;;;0.80;;
69434;SDS011;56625;54.322;18.582;2022-09-20T14:19:47;5.50;;;0.50;;
69434;SDS011;56625;54.322;18.582;2022-09-20T14:22:21;3.20;;;0.60;;
69434;SDS011;56625;54.322;18.582;2022-09-20T14:25:01;3.00;;;0.50;;
69434;SDS011;56625;54.322;18.582;2022-09-20T14:27:47;2.70;;;0.40;;
69434;SDS011;56625;54.322;18.582;2022-09-20T14:30:33;3.40;;;0.50;;
69434;SDS011;56625;54.322;18.582;2022-09-20T14:33:06;2.30;;;0.30;;
69434;SDS011;56625;54.322;18.582;2022-09-20T14:35:48;4.80;;;1.40;;
69434;SDS011;56625;54.322;18.582;2022-09-20T14:38:22;5.80;;;0.80;;
69434;SDS011;56625;54.322;18.582;2022-09-20T14:40:52;3.20;;;0.60;;
69434;SDS011;56625;54.322;18.582;2022-09-20T14:43:30;2.30;;;0.40;;
69434;SDS011;56625;54.322;18.582;2022-09-20T14:46:04;4.10;;;0.60;;
69434;SDS011;56625;54.322;18.582;2022-09-20T14:48:41;3.60;;;0.50;;
69434;SDS011;56625;54.322;18.582;2022-09-20T14:54:03;1.60;;;0.30;;
69434;SDS011;56625;54.322;18.582;2022-09-20T14:56:45;2.10;;;0.20;;
69434;SDS011;56625;54.322;18.582;2022-09-20T14:59:25;2.40;;;0.40;;
69434;SDS011;56625;54.322;18.582;2022-09-20T15:02:02;2.20;;;0.30;;
69434;SDS011;56625;54.322;18.582;2022-09-20T15:04:41;4.20;;;0.70;;
69434;SDS011;56625;54.322;18.582;2022-09-20T15:07:20;4.10;;;0.80;;
69434;SDS011;56625;54.322;18.582;2022-09-20T15:09:48;3.20;;;0.70;;
69434;SDS011;56625;54.322;18.582;2022-09-20T15:12:18;4.60;;;0.70;;
69434;SDS011;56625;54.322;18.582;2022-09-20T15:14:47;3.70;;;0.80;;
69434;SDS011;56625;54.322;18.582;2022-09-20T15:17:17;4.70;;;1.00;;
69434;SDS011;56625;54.322;18.582;2022-09-20T15:19:47;3.20;;;0.60;;
69434;SDS011;56625;54.322;18.582;2022-09-20T15:22:16;4.50;;;0.90;;
69434;SDS011;56625;54.322;18.582;2022-09-20T15:24:44;5.40;;;0.80;;
69434;SDS011;56625;54.322;18.582;2022-09-20T15:27:12;4.20;;;0.70;;
69434;SDS011;56625;54.322;18.582;2022-09-20T15:29:40;5.80;;;0.80;;
69434;SDS011;56625;54.322;18.582;2022-09-20T15:32:09;7.10;;;1.00;;
69434;SDS011;56625;54.322;18.582;2022-09-20T15:34:38;5.20;;;0.80;;
69434;SDS011;56625;54.322;18.582;2022-09-20T15:37:05;4.20;;;0.80;;
69434;SDS011;56625;54.322;18.582;2022-09-20T15:39:34;5.00;;;0.90;;
69434;SDS011;56625;54.322;18.582;2022-09-20T15:42:03;5.50;;;1.10;;
69434;SDS011;56625;54.322;18.582;2022-09-20T15:44:31;5.30;;;0.90;;
69434;SDS011;56625;54.322;18.582;2022-09-20T15:46:59;4.20;;;0.80;;
69434;SDS011;56625;54.322;18.582;2022-09-20T15:49:28;3.30;;;0.80;;
69434;SDS011;56625;54.322;18.582;2022-09-20T15:51:58;3.10;;;0.50;;
69434;SDS011;56625;54.322;18.582;2022-09-20T15:54:39;5.20;;;1.10;;
69434;SDS011;56625;54.322;18.582;2022-09-20T15:57:08;6.90;;;1.10;;
69434;SDS011;56625;54.322;18.582;2022-09-20T16:00:40;4.90;;;0.90;;
69434;SDS011;56625;54.322;18.582;2022-09-20T16:04:10;6.00;;;1.00;;
69434;SDS011;56625;54.322;18.582;2022-09-20T16:07:08;4.60;;;0.90;;
69434;SDS011;56625;54.322;18.582;2022-09-20T16:13:35;5.00;;;1.10;;
69434;SDS011;56625;54.322;18.582;2022-09-20T16:16:10;4.60;;;0.80;;
69434;SDS011;56625;54.322;18.582;2022-09-20T16:19:44;7.00;;;1.10;;
69434;SDS011;56625;54.322;18.582;2022-09-20T16:22:14;7.40;;;1.40;;
69434;SDS011;56625;54.322;18.582;2022-09-20T16:24:44;5.30;;;1.30;;
69434;SDS011;56625;54.322;18.582;2022-09-20T16:27:13;7.90;;;1.80;;
69434;SDS011;56625;54.322;18.582;2022-09-20T16:29:45;6.70;;;1.30;;
69434;SDS011;56625;54.322;18.582;2022-09-20T16:32:13;5.20;;;1.60;;
69434;SDS011;56625;54.322;18.582;2022-09-20T16:34:41;7.40;;;1.70;;
69434;SDS011;56625;54.322;18.582;2022-09-20T16:37:27;7.00;;;2.00;;
69434;SDS011;56625;54.322;18.582;2022-09-20T16:40:00;5.30;;;1.20;;
69434;SDS011;56625;54.322;18.582;2022-09-20T16:42:28;5.10;;;1.00;;
69434;SDS011;56625;54.322;18.582;2022-09-20T16:44:58;6.00;;;1.40;;
69434;SDS011;56625;54.322;18.582;2022-09-20T16:47:28;6.00;;;1.30;;
69434;SDS011;56625;54.322;18.582;2022-09-20T16:49:58;4.90;;;1.30;;
69434;SDS011;56625;54.322;18.582;2022-09-20T16:52:26;5.20;;;1.40;;
69434;SDS011;56625;54.322;18.582;2022-09-20T16:54:54;6.30;;;1.40;;
69434;SDS011;56625;54.322;18.582;2022-09-20T16:57:24;5.70;;;1.50;;
69434;SDS011;56625;54.322;18.582;2022-09-20T16:59:53;6.10;;;1.70;;
69434;SDS011;56625;54.322;18.582;2022-09-20T17:02:22;7.50;;;1.80;;
69434;SDS011;56625;54.322;18.582;2022-09-20T17:04:54;9.60;;;2.30;;
69434;SDS011;56625;54.322;18.582;2022-09-20T17:07:24;7.00;;;1.90;;
69434;SDS011;56625;54.322;18.582;2022-09-20T17:09:52;8.20;;;2.10;;
69434;SDS011;56625;54.322;18.582;2022-09-20T17:12:29;8.70;;;2.70;;
69434;SDS011;56625;54.322;18.582;2022-09-20T17:15:00;7.60;;;2.40;;
69434;SDS011;56625;54.322;18.582;2022-09-20T17:17:29;10.30;;;2.50;;
69434;SDS011;56625;54.322;18.582;2022-09-20T17:20:02;10.90;;;2.80;;
69434;SDS011;56625;54.322;18.582;2022-09-20T17:22:32;9.90;;;2.20;;
69434;SDS011;56625;54.322;18.582;2022-09-20T17:25:01;11.10;;;3.70;;
69434;SDS011;56625;54.322;18.582;2022-09-20T17:27:30;12.20;;;3.20;;
69434;SDS011;56625;54.322;18.582;2022-09-20T17:29:59;9.70;;;3.00;;
69434;SDS011;56625;54.322;18.582;2022-09-20T17:32:30;10.70;;;3.30;;
69434;SDS011;56625;54.322;18.582;2022-09-20T17:34:58;8.30;;;2.80;;
69434;SDS011;56625;54.322;18.582;2022-09-20T17:37:27;9.00;;;3.00;;
69434;SDS011;56625;54.322;18.582;2022-09-20T17:39:55;6.90;;;1.90;;
69434;SDS011;56625;54.322;18.582;2022-09-20T17:42:28;9.00;;;2.70;;
69434;SDS011;56625;54.322;18.582;2022-09-20T17:44:58;8.40;;;2.90;;
69434;SDS011;56625;54.322;18.582;2022-09-20T17:47:27;10.30;;;3.00;;
69434;SDS011;56625;54.322;18.582;2022-09-20T17:49:55;9.60;;;2.60;;
69434;SDS011;56625;54.322;18.582;2022-09-20T17:52:24;8.60;;;3.00;;
69434;SDS011;56625;54.322;18.582;2022-09-20T17:54:52;8.20;;;3.00;;
69434;SDS011;56625;54.322;18.582;2022-09-20T17:57:20;9.70;;;3.20;;
69434;SDS011;56625;54.322;18.582;2022-09-20T17:59:48;10.60;;;3.30;;
69434;SDS011;56625;54.322;18.582;2022-09-20T18:02:19;7.70;;;2.90;;
69434;SDS011;56625;54.322;18.582;2022-09-20T18:04:52;8.50;;;2.50;;
69434;SDS011;56625;54.322;18.582;2022-09-20T18:07:20;7.80;;;2.30;;
69434;SDS011;56625;54.322;18.582;2022-09-20T18:09:56;13.10;;;3.20;;
69434;SDS011;56625;54.322;18.582;2022-09-20T18:12:24;6.80;;;2.20;;
69434;SDS011;56625;54.322;18.582;2022-09-20T18:14:52;8.70;;;2.50;;
69434;SDS011;56625;54.322;18.582;2022-09-20T18:17:23;9.50;;;2.60;;
69434;SDS011;56625;54.322;18.582;2022-09-20T18:19:51;9.40;;;2.90;;
69434;SDS011;56625;54.322;18.582;2022-09-20T18:22:23;7.00;;;2.60;;
69434;SDS011;56625;54.322;18.582;2022-09-20T18:24:51;8.60;;;2.70;;
69434;SDS011;56625;54.322;18.582;2022-09-20T18:27:24;7.20;;;2.50;;
69434;SDS011;56625;54.322;18.582;2022-09-20T18:29:53;6.20;;;2.00;;
69434;SDS011;56625;54.322;18.582;2022-09-20T18:32:23;9.60;;;2.10;;
69434;SDS011;56625;54.322;18.582;2022-09-20T18:34:54;6.30;;;1.60;;
69434;SDS011;56625;54.322;18.582;2022-09-20T18:37:23;8.20;;;2.00;;
69434;SDS011;56625;54.322;18.582;2022-09-20T18:39:52;7.60;;;1.90;;
69434;SDS011;56625;54.322;18.582;2022-09-20T18:42:22;6.00;;;1.60;;
69434;SDS011;56625;54.322;18.582;2022-09-20T18:44:50;8.60;;;2.70;;
69434;SDS011;56625;54.322;18.582;2022-09-20T18:47:18;8.30;;;2.40;;
69434;SDS011;56625;54.322;18.582;2022-09-20T18:49:46;7.30;;;2.00;;
69434;SDS011;56625;54.322;18.582;2022-09-20T18:52:15;6.80;;;2.10;;
69434;SDS011;56625;54.322;18.582;2022-09-20T18:54:51;6.40;;;1.70;;
69434;SDS011;56625;54.322;18.582;2022-09-20T18:57:23;6.00;;;1.70;;
69434;SDS011;56625;54.322;18.582;2022-09-20T18:59:51;4.60;;;1.10;;
69434;SDS011;56625;54.322;18.582;2022-09-20T19:02:40;7.30;;;1.80;;